Time;durP1;ratioP1;P1;durP2;ratioP2;P2;SDS_P1;SDS_P2;PMS_P1;PMS_P2;Temp;Humidity;BMP_temperature;BMP_pressure;BME280_temperature;BME280_humidity;BME280_pressure;Samples;Min_cycle;Max_cycle;Signal;HPM_P1;HPM_P2
2021/12/26 00:00:34;;;;;;;1.93;1.77;;;;;;;-5.03;91.24;100740.53;4952821;28;20158;-71
2021/12/26 00:03:00;;;;;;;1.67;1.30;;;;;;;-5.05;90.97;100741.84;4942243;28;20182;-71
2021/12/26 00:05:27;;;;;;;1.90;1.43;;;;;;;-5.09;91.15;100743.38;4951121;28;20531;-71
2021/12/26 00:07:53;;;;;;;2.97;1.43;;;;;;;-5.15;91.12;100744.38;4951197;28;20134;-71
2021/12/26 00:10:21;;;;;;;0.70;0.70;;;;;;;-5.10;91.31;100741.78;4952252;28;20055;-71
2021/12/26 00:12:47;;;;;;;3.03;1.67;;;;;;;-5.08;90.92;100747.56;4951225;28;20027;-71
2021/12/26 00:15:13;;;;;;;1.40;1.23;;;;;;;-5.08;90.62;100761.50;4952036;28;20527;-71
2021/12/26 00:17:39;;;;;;;2.20;1.67;;;;;;;-5.13;90.96;100752.78;4951080;28;20110;-71
2021/12/26 00:20:07;;;;;;;1.43;1.23;;;;;;;-5.08;90.52;100751.00;4951684;28;20492;-71
2021/12/26 00:22:33;;;;;;;1.77;1.67;;;;;;;-5.16;90.17;100750.66;4948846;28;20051;-71
2021/12/26 00:24:58;;;;;;;1.90;1.70;;;;;;;-5.25;90.67;100760.81;4951200;28;20412;-71
2021/12/26 00:27:24;;;;;;;1.00;1.00;;;;;;;-5.31;90.80;100737.41;4951542;28;20043;-70
2021/12/26 00:29:50;;;;;;;2.93;2.27;;;;;;;-5.32;91.35;100743.69;4966206;28;20039;-71
2021/12/26 00:32:16;;;;;;;2.63;1.60;;;;;;;-5.30;91.03;100741.63;4951155;28;20031;-71
2021/12/26 00:34:42;;;;;;;3.07;2.30;;;;;;;-5.31;90.64;100740.81;4951000;28;20031;-71
2021/12/26 00:37:08;;;;;;;1.83;1.33;;;;;;;-5.39;91.09;100736.00;4951885;28;20043;-71
2021/12/26 00:39:35;;;;;;;1.40;1.30;;;;;;;-5.39;90.71;100732.59;4966201;28;20031;-71
2021/12/26 00:42:02;;;;;;;1.53;1.40;;;;;;;-5.27;90.70;100733.25;4967925;28;20035;-71
2021/12/26 00:44:27;;;;;;;1.63;1.53;;;;;;;-5.31;90.14;100726.91;4947614;29;20038;-71
2021/12/26 00:46:53;;;;;;;2.03;1.23;;;;;;;-5.27;90.31;100731.41;4947513;29;20380;-71
2021/12/26 00:49:21;;;;;;;1.00;1.00;;;;;;;-5.36;90.24;100734.75;4962554;28;20139;-71
2021/12/26 00:51:47;;;;;;;1.60;1.50;;;;;;;-5.43;90.44;100731.50;4951667;28;20034;-72
2021/12/26 00:54:12;;;;;;;1.00;1.00;;;;;;;-5.39;90.54;100735.22;4952446;28;20035;-71
2021/12/26 00:56:38;;;;;;;2.43;1.60;;;;;;;-5.39;90.06;100735.22;4953024;28;20098;-71
2021/12/26 00:59:03;;;;;;;2.70;1.83;;;;;;;-5.38;90.40;100736.81;4955775;28;20029;-71
2021/12/26 01:01:30;;;;;;;0.60;0.60;;;;;;;-5.39;89.83;100733.41;4951268;28;20035;-71
2021/12/26 01:03:55;;;;;;;2.20;1.13;;;;;;;-5.39;89.94;100733.41;4951809;28;20082;-71
2021/12/26 01:06:21;;;;;;;1.43;1.27;;;;;;;-5.40;89.72;100725.78;4960625;28;20038;-71
2021/12/26 01:08:50;;;;;;;4.33;0.80;;;;;;;-5.41;89.54;100726.81;4947965;29;20031;-71
2021/12/26 01:11:31;;;;;;;1.83;1.27;;;;;;;-5.48;89.88;100728.84;4966138;28;20054;-71
2021/12/26 01:13:57;;;;;;;;;;;;;;;-5.50;89.89;100735.09;4944239;28;20046;-71
2021/12/26 01:16:39;;;;;;;2.10;1.77;;;;;;;-5.52;89.31;100731.94;4954911;28;19965;-71
2021/12/26 01:19:09;;;;;;;1.40;1.00;;;;;;;-5.46;89.51;100737.25;4953238;28;20031;-71
2021/12/26 01:21:36;;;;;;;2.30;1.02;;;;;;;-5.48;89.08;100734.88;4949340;29;20035;-71
2021/12/26 01:24:14;;;;;;;3.77;1.10;;;;;;;-5.57;89.71;100737.16;4948486;29;20786;-71
2021/12/26 01:26:40;;;;;;;2.07;1.97;;;;;;;-5.56;89.41;100745.81;4950470;29;20031;-71
2021/12/26 01:29:08;;;;;;;1.53;1.43;;;;;;;-5.54;89.36;100743.72;4947375;29;20031;-71
2021/12/26 01:31:36;;;;;;;2.23;1.53;;;;;;;-5.60;90.04;100742.91;4966433;28;20530;-71
2021/12/26 01:34:15;;;;;;;1.40;1.07;;;;;;;-5.63;90.24;100746.00;4962869;28;20036;-71
2021/12/26 01:36:49;;;;;;;1.07;1.07;;;;;;;-5.62;90.02;100747.59;4973417;28;20094;-71
2021/12/26 01:39:33;;;;;;;1.23;1.13;;;;;;;-5.59;90.19;100747.09;4959103;28;20046;-71
2021/12/26 01:42:19;;;;;;;1.03;0.97;;;;;;;-5.61;90.09;100745.75;4963787;28;20070;-71
2021/12/26 01:44:54;;;;;;;1.03;1.00;;;;;;;-5.63;89.97;100738.13;4959710;28;20035;-71
2021/12/26 01:47:21;;;;;;;1.60;1.10;;;;;;;-5.62;90.60;100750.22;4949198;29;20036;-71
2021/12/26 01:49:47;;;;;;;0.70;0.70;;;;;;;-5.64;90.33;100752.28;4947753;29;20562;-71
2021/12/26 01:52:13;;;;;;;2.00;1.50;;;;;;;-5.63;90.43;100759.09;4937136;29;20074;-71
2021/12/26 01:57:10;;;;;;;1.50;1.20;;;;;;;-5.65;90.74;100752.50;4935796;29;20039;-71
2021/12/26 01:59:37;;;;;;;1.57;1.27;;;;;;;-5.59;90.92;100747.09;4932295;29;20389;-71
2021/12/26 02:02:09;;;;;;;2.30;1.70;;;;;;;-5.58;90.86;100746.06;4942153;29;20031;-71
2021/12/26 02:04:40;;;;;;;0.73;0.73;;;;;;;-5.57;90.97;100737.16;4947347;29;20478;-71
2021/12/26 02:07:08;;;;;;;;;;;;;;;-5.56;91.14;100735.31;4962135;28;20078;-71
2021/12/26 02:09:34;;;;;;;0.70;0.70;;;;;;;-5.61;91.44;100730.00;4949491;29;19969;-71
2021/12/26 02:12:03;;;;;;;2.57;1.97;;;;;;;-5.57;91.52;100731.09;4933978;29;20031;-71
2021/12/26 02:14:31;;;;;;;1.23;1.13;;;;;;;-5.58;91.62;100730.34;4946049;29;20031;-71
2021/12/26 02:17:19;;;;;;;0.97;0.90;;;;;;;-5.60;92.07;100715.88;4963477;28;20034;-71
2021/12/26 02:19:46;;;;;;;1.77;1.20;;;;;;;-5.57;92.48;100713.56;4950410;29;20031;-71
2021/12/26 02:22:16;;;;;;;1.47;1.27;;;;;;;-5.48;92.02;100718.34;4949911;29;20026;-71
2021/12/26 02:27:32;;;;;;;1.23;1.17;;;;;;;-5.52;92.03;100724.06;4938275;28;20040;-71
2021/12/26 02:30:07;;;;;;;3.10;1.30;;;;;;;-5.56;92.67;100716.97;4965289;28;20042;-71
2021/12/26 02:32:33;;;;;;;0.60;0.60;;;;;;;-5.60;92.57;100715.88;4965045;28;20035;-72
2021/12/26 02:34:59;;;;;;;1.00;1.00;;;;;;;-5.60;92.75;100721.13;4964322;28;20039;-71
2021/12/26 02:37:25;;;;;;;0.67;0.67;;;;;;;-5.62;92.65;100733.69;4946247;28;20395;-72
2021/12/26 02:39:52;;;;;;;1.10;0.83;;;;;;;-5.66;92.05;100725.53;4949033;29;20043;-72
2021/12/26 02:42:19;;;;;;;1.50;1.27;;;;;;;-5.66;91.91;100730.75;4947277;28;20042;-72
2021/12/26 02:44:47;;;;;;;6.10;1.47;;;;;;;-5.69;91.72;100728.63;4950194;28;20031;-72
2021/12/26 02:47:14;;;;;;;1.10;1.10;;;;;;;-5.74;92.11;100714.66;4958535;28;20063;-72
2021/12/26 02:49:40;;;;;;;1.80;0.93;;;;;;;-5.76;91.95;100728.03;4949289;29;20063;-72
2021/12/26 02:52:06;;;;;;;1.23;0.87;;;;;;;-5.80;92.00;100726.13;4965480;28;20023;-71
2021/12/26 02:54:31;;;;;;;1.00;0.90;;;;;;;-5.77;92.14;100729.06;4950140;28;20526;-71
2021/12/26 02:56:57;;;;;;;1.60;1.20;;;;;;;-5.85;91.50;100728.75;4965603;28;20039;-71
2021/12/26 02:59:23;;;;;;;0.80;0.80;;;;;;;-5.86;92.14;100727.94;4965691;28;20038;-72
2021/12/26 03:01:50;;;;;;;1.23;0.93;;;;;;;-5.78;91.89;100729.31;4949475;28;20073;-72
2021/12/26 03:04:16;;;;;;;0.80;0.80;;;;;;;-5.79;92.12;100732.97;4962698;28;20412;-72
2021/12/26 03:07:02;;;;;;;1.17;0.90;;;;;;;-5.81;91.76;100732.44;4949272;29;20035;-71
2021/12/26 03:09:33;;;;;;;1.13;0.93;;;;;;;-5.86;91.73;100727.94;4963445;28;20039;-72
2021/12/26 03:11:58;;;;;;;0.60;0.60;;;;;;;-5.89;91.73;100720.59;4963068;28;20024;-72
2021/12/26 03:14:24;;;;;;;4.23;1.50;;;;;;;-5.91;91.28;100724.47;4945337;29;20765;-72
2021/12/26 03:16:51;;;;;;;0.90;0.90;;;;;;;-5.97;91.70;100728.88;4961524;28;20130;-71
2021/12/26 03:19:17;;;;;;;3.07;1.57;;;;;;;-5.99;91.18;100727.53;4950240;29;20043;-71
2021/12/26 03:21:48;;;;;;;0.90;0.90;;;;;;;-6.01;91.53;100730.38;4946354;29;20042;-71
2021/12/26 03:24:13;;;;;;;0.60;0.60;;;;;;;-6.03;90.84;100721.97;4963591;28;20034;-72
2021/12/26 03:26:39;;;;;;;1.60;0.97;;;;;;;-5.97;90.75;100726.25;4965735;28;20035;-72
2021/12/26 03:29:05;;;;;;;0.87;0.87;;;;;;;-5.91;90.28;100733.13;4951173;28;20036;-71
2021/12/26 03:31:30;;;;;;;2.07;0.97;;;;;;;-5.96;90.23;100721.81;4964842;28;20122;-71
2021/12/26 03:33:56;;;;;;;0.77;0.77;;;;;;;-6.03;89.99;100726.41;4965155;28;20027;-71
2021/12/26 03:36:22;;;;;;;0.70;0.70;;;;;;;-6.12;90.45;100728.69;4966246;28;20031;-71
2021/12/26 03:38:47;;;;;;;1.47;0.90;;;;;;;-6.12;89.91;100717.41;4966398;28;20034;-71
2021/12/26 03:41:22;;;;;;;1.40;1.30;;;;;;;-6.16;90.16;100721.53;4952635;28;20038;-71
2021/12/26 03:43:53;;;;;;;0.70;0.70;;;;;;;-6.17;89.97;100714.72;4951432;29;20126;-72
2021/12/26 03:46:19;;;;;;;0.93;0.93;;;;;;;-6.13;89.83;100715.81;4949684;28;20146;-72
2021/12/26 03:48:44;;;;;;;2.03;1.10;;;;;;;-6.18;89.43;100710.53;4953643;29;20455;-71
2021/12/26 03:51:10;;;;;;;0.57;0.57;;;;;;;-6.24;89.38;100707.06;4967294;28;20826;-71
2021/12/26 03:53:36;;;;;;;1.37;1.27;;;;;;;-6.25;89.30;100713.31;4965210;28;20046;-72
2021/12/26 03:56:03;;;;;;;0.90;0.90;;;;;;;-6.31;89.31;100716.94;4968380;28;20458;-71
2021/12/26 03:58:30;;;;;;;1.13;1.10;;;;;;;-6.37;89.20;100715.25;4967999;28;20040;-71
2021/12/26 04:00:56;;;;;;;1.50;1.40;;;;;;;-6.40;89.28;100705.25;4952992;29;20447;-72
2021/12/26 04:03:23;;;;;;;1.30;1.20;;;;;;;-6.35;89.70;100707.97;4967736;28;20031;-71
2021/12/26 04:05:56;;;;;;;1.10;0.80;;;;;;;-6.36;89.64;100711.59;4962431;28;20055;-72
2021/12/26 04:08:22;;;;;;;1.97;1.80;;;;;;;-6.37;89.14;100707.41;4965101;28;20555;-72
2021/12/26 04:10:48;;;;;;;1.10;1.10;;;;;;;-6.28;89.28;100707.78;4951803;29;20027;-72
2021/12/26 04:13:15;;;;;;;0.50;0.50;;;;;;;-6.32;89.02;100712.69;4942240;29;20035;-72
2021/12/26 04:15:41;;;;;;;0.83;0.83;;;;;;;-6.41;88.89;100697.66;4952145;29;20377;-72
2021/12/26 04:18:07;;;;;;;1.93;0.90;;;;;;;-6.46;89.39;100707.03;4948667;28;20035;-72
2021/12/26 04:20:33;;;;;;;1.50;1.40;;;;;;;-6.50;89.62;100710.34;4950990;29;20031;-72
2021/12/26 04:23:01;;;;;;;4.47;1.97;;;;;;;-6.51;89.41;100706.16;4963054;28;20027;-72
2021/12/26 04:25:27;;;;;;;2.73;1.67;;;;;;;-6.47;89.82;100709.88;4952498;29;20093;-72
2021/12/26 04:27:54;;;;;;;0.50;0.50;;;;;;;-6.41;89.54;100703.69;4954054;28;20500;-73
2021/12/26 04:30:20;;;;;;;1.47;1.13;;;;;;;-6.42;89.40;100707.31;4949728;28;20023;-72
2021/12/26 04:32:46;;;;;;;0.90;0.90;;;;;;;-6.41;89.33;100698.47;4948445;29;20094;-73
2021/12/26 04:35:13;;;;;;;1.17;1.00;;;;;;;-6.46;89.24;100711.47;4963895;28;20579;-73
2021/12/26 04:37:39;;;;;;;1.37;1.27;;;;;;;-6.47;89.35;100710.69;4949159;29;20046;-72
2021/12/26 04:40:08;;;;;;;3.50;1.73;;;;;;;-6.52;89.61;100701.94;4964349;28;20485;-73
2021/12/26 04:42:52;;;;;;;2.07;1.07;;;;;;;-6.51;89.21;100708.78;4948271;28;20047;-72
2021/12/26 04:45:27;;;;;;;0.80;0.47;;;;;;;-6.54;89.52;100710.06;4961303;28;20031;-72
2021/12/26 04:48:11;;;;;;;1.00;1.00;;;;;;;-6.52;88.97;100708.00;4950866;28;20117;-72
2021/12/26 04:50:36;;;;;;;0.87;0.87;;;;;;;-6.51;88.72;100708.78;4964246;28;20034;-72
2021/12/26 04:53:05;;;;;;;1.00;1.00;;;;;;;-6.52;88.97;100708.00;4966514;28;20030;-72
2021/12/26 04:55:31;;;;;;;4.20;1.00;;;;;;;-6.52;88.46;100701.94;4963618;28;20659;-73
2021/12/26 04:57:57;;;;;;;0.50;0.50;;;;;;;-6.60;88.44;100702.38;4955788;28;20047;-72
2021/12/26 05:00:26;;;;;;;0.70;0.70;;;;;;;-6.64;88.36;100701.28;4952956;28;20043;-72
2021/12/26 05:02:52;;;;;;;0.63;0.63;;;;;;;-6.65;88.42;100695.25;4950299;28;20042;-73
2021/12/26 05:05:18;;;;;;;1.17;1.07;;;;;;;-6.65;88.52;100697.06;4966800;28;20035;-73
2021/12/26 05:07:44;;;;;;;1.07;0.97;;;;;;;-6.65;88.98;100692.63;4951219;28;20038;-73
2021/12/26 05:10:13;;;;;;;0.70;0.70;;;;;;;-6.66;88.96;100685.78;4963229;28;20057;-73
2021/12/26 05:12:39;;;;;;;1.60;1.50;;;;;;;-6.66;88.99;100692.88;4949295;29;20023;-73
2021/12/26 05:15:07;;;;;;;0.63;0.63;;;;;;;-6.67;89.22;100692.06;4950545;28;20519;-72
2021/12/26 05:17:36;;;;;;;1.63;1.15;;;;;;;-6.70;89.17;100689.94;4948052;28;20071;-72
2021/12/26 05:20:04;;;;;;;0.90;0.90;;;;;;;-6.72;89.45;100694.63;4947068;29;20032;-72
2021/12/26 05:22:30;;;;;;;0.97;0.97;;;;;;;-6.68;89.40;100693.09;4947889;29;20172;-73
2021/12/26 05:24:56;;;;;;;1.10;1.00;;;;;;;-6.73;89.45;100700.88;4958916;28;20126;-72
2021/12/26 05:27:22;;;;;;;1.60;1.27;;;;;;;-6.74;89.50;100694.09;4947644;29;20050;-72
2021/12/26 05:29:47;;;;;;;3.30;0.90;;;;;;;-6.68;89.53;100694.94;4949951;28;20039;-72
2021/12/26 05:32:13;;;;;;;0.70;0.70;;;;;;;-6.69;89.40;100695.97;4965378;28;20507;-72
2021/12/26 05:34:38;;;;;;;0.50;0.50;;;;;;;-6.72;89.31;100702.50;4959789;28;20030;-72
2021/12/26 05:37:07;;;;;;;1.13;0.93;;;;;;;-6.71;89.46;100696.22;4949102;29;20031;-73
2021/12/26 05:39:34;;;;;;;0.63;0.63;;;;;;;-6.69;88.91;100691.53;4953832;28;20027;-72
2021/12/26 05:41:59;;;;;;;0.50;0.50;;;;;;;-6.73;88.69;100684.38;4949930;29;20407;-72
2021/12/26 05:44:30;;;;;;;0.68;0.68;;;;;;;-6.77;89.46;100684.06;4960107;28;20034;-72
2021/12/26 05:46:59;;;;;;;1.00;1.00;;;;;;;-6.74;89.15;100688.03;4950141;29;20031;-72
2021/12/26 05:49:29;;;;;;;0.60;0.60;;;;;;;-6.78;89.43;100684.31;4949340;28;20031;-73
2021/12/26 05:52:10;;;;;;;0.57;0.57;;;;;;;-6.82;89.62;100680.59;4947152;29;20122;-73
2021/12/26 05:54:44;;;;;;;0.70;0.70;;;;;;;-6.86;90.19;100685.53;4963986;28;20400;-73
2021/12/26 05:57:10;;;;;;;0.53;0.53;;;;;;;-6.81;90.01;100680.34;4967367;28;20035;-73
2021/12/26 05:59:36;;;;;;;1.57;0.83;;;;;;;-6.74;90.00;100677.59;4948260;28;20039;-72
2021/12/26 06:02:02;;;;;;;0.70;0.70;;;;;;;-6.67;89.27;100672.97;4930817;29;20044;-72
2021/12/26 06:04:29;;;;;;;0.43;0.43;;;;;;;-6.69;89.25;100680.25;4949914;29;20043;-73
2021/12/26 06:06:54;;;;;;;1.00;0.90;;;;;;;-6.74;89.30;100677.59;4948674;29;20044;-73
2021/12/26 06:09:21;;;;;;;0.50;0.50;;;;;;;-6.79;89.52;100674.88;4963721;28;20043;-73
2021/12/26 06:11:47;;;;;;;0.73;0.73;;;;;;;-6.83;89.90;100677.19;4947042;29;20035;-73
2021/12/26 06:14:13;;;;;;;0.73;0.70;;;;;;;-6.82;89.63;100685.84;4942212;29;20037;-73
2021/12/26 06:16:40;;;;;;;0.63;0.63;;;;;;;-6.88;90.02;100678.94;4966868;28;20039;-73
2021/12/26 06:19:13;;;;;;;1.00;1.00;;;;;;;-6.88;89.83;100664.03;4947396;29;20445;-73
2021/12/26 06:21:58;;;;;;;0.50;0.50;;;;;;;-6.87;89.96;100663.00;4926579;28;20051;-72
2021/12/26 06:24:44;;;;;;;2.43;0.73;;;;;;;-6.86;89.74;100661.19;4930512;29;20040;-73
2021/12/26 06:27:22;;;;;;;0.73;0.73;;;;;;;-6.88;89.70;100666.66;4946690;29;20039;-72
2021/12/26 06:30:26;;;;;;;0.60;0.60;;;;;;;-6.88;89.52;100677.13;4943678;29;20408;-72
2021/12/26 06:33:10;;;;;;;0.67;0.67;;;;;;;-6.89;89.45;100678.13;4950926;29;20050;-72
2021/12/26 06:35:49;;;;;;;0.50;0.50;;;;;;;-6.89;89.30;100685.22;4950471;29;20047;-71
2021/12/26 06:38:38;;;;;;;5.73;1.40;;;;;;;-6.90;89.27;100675.78;4964457;28;20044;-71
2021/12/26 06:41:33;;;;;;;1.03;1.00;;;;;;;-6.94;88.79;100677.28;4931019;29;20524;-71
2021/12/26 06:44:17;;;;;;;1.23;1.13;;;;;;;-6.95;88.80;100675.72;4949688;29;20062;-71
2021/12/26 06:47:15;;;;;;;0.73;0.73;;;;;;;-6.99;88.85;100669.38;4939791;29;20052;-71
2021/12/26 06:49:43;;;;;;;0.77;0.77;;;;;;;-7.02;88.75;100683.69;4960950;28;20496;-71
2021/12/26 06:52:10;;;;;;;1.30;1.20;;;;;;;-7.03;88.97;100674.28;4964664;28;20028;-71
2021/12/26 06:54:40;;;;;;;0.57;0.57;;;;;;;-6.98;89.13;100670.94;4950307;28;20520;-72
2021/12/26 06:57:06;;;;;;;5.73;2.37;;;;;;;-6.99;88.91;100685.06;4948517;28;20417;-71
2021/12/26 06:59:31;;;;;;;1.67;1.57;;;;;;;-7.00;89.36;100683.47;4947670;29;20046;-71
2021/12/26 07:01:57;;;;;;;1.63;1.53;;;;;;;-7.00;89.56;100683.47;4965050;28;20031;-71
2021/12/26 07:04:35;;;;;;;6.67;2.70;;;;;;;-6.98;89.08;100689.25;4949935;28;20031;-71
2021/12/26 07:07:01;;;;;;;4.10;1.23;;;;;;;-6.96;89.14;100684.56;4965607;28;20113;-72
2021/12/26 07:09:29;;;;;;;2.10;1.33;;;;;;;-6.97;89.32;100696.06;4960836;28;20031;-72
2021/12/26 07:11:56;;;;;;;1.80;1.70;;;;;;;-6.99;88.88;100700.75;4956349;28;20020;-71
2021/12/26 07:14:36;;;;;;;;;;;;;;;-6.98;89.11;100700.50;4943140;29;20036;-72
2021/12/26 07:17:05;;;;;;;1.10;1.07;;;;;;;-7.01;88.94;100695.75;4963635;28;19921;-74
2021/12/26 07:19:31;;;;;;;0.60;0.60;;;;;;;-7.06;88.78;100711.38;4950684;29;20511;-71
2021/12/26 07:22:05;;;;;;;0.93;0.90;;;;;;;-7.14;88.91;100713.59;4951317;29;20039;-72
2021/12/26 07:24:31;;;;;;;2.17;1.07;;;;;;;-7.13;89.00;100710.72;4968403;28;20066;-72
2021/12/26 07:26:57;;;;;;;2.17;1.37;;;;;;;-7.13;88.99;100715.16;4969643;28;20513;-72
2021/12/26 07:29:41;;;;;;;1.40;1.30;;;;;;;-7.09;88.84;100706.63;4954034;29;20074;-72
2021/12/26 07:32:08;;;;;;;1.40;1.30;;;;;;;-7.17;88.92;100704.41;4968850;28;20547;-72
2021/12/26 07:34:34;;;;;;;0.60;0.60;;;;;;;-7.16;88.98;100713.81;4968984;28;20050;-72
2021/12/26 07:37:02;;;;;;;1.20;1.10;;;;;;;-7.10;88.96;100712.09;4968773;28;20428;-71
2021/12/26 07:39:35;;;;;;;1.00;1.00;;;;;;;-7.12;88.83;100716.75;4954746;28;20046;-72
2021/12/26 07:42:01;;;;;;;0.40;0.40;;;;;;;-7.14;88.72;100703.13;4950058;29;20043;-72
2021/12/26 07:45:05;;;;;;;0.83;0.83;;;;;;;-7.18;88.79;100696.78;4942561;28;20095;-72
2021/12/26 07:47:54;;;;;;;0.93;0.73;;;;;;;-7.15;88.69;100694.50;4948182;29;20031;-72
2021/12/26 07:50:20;;;;;;;6.10;1.20;;;;;;;-7.12;88.77;100695.84;4945132;29;20099;-72
2021/12/26 07:53:12;;;;;;;1.00;1.00;;;;;;;-7.09;88.82;100693.53;4932742;29;20055;-72
2021/12/26 07:55:56;;;;;;;0.70;0.70;;;;;;;-7.13;88.53;100697.66;4952385;29;20136;-72
2021/12/26 07:58:40;;;;;;;1.07;1.00;;;;;;;-7.16;89.27;100697.34;4951315;29;20034;-72
2021/12/26 08:01:31;;;;;;;1.53;1.40;;;;;;;-7.10;89.42;100706.88;4952044;29;20118;-72
2021/12/26 08:04:19;;;;;;;1.27;1.00;;;;;;;-7.07;89.60;100699.34;4953018;28;20051;-72
2021/12/26 08:07:06;;;;;;;1.63;0.93;;;;;;;-7.05;89.64;100696.47;4942432;28;20043;-72
2021/12/26 08:09:32;;;;;;;1.13;1.03;;;;;;;-7.01;89.58;100697.59;4966567;28;20035;-71
2021/12/26 08:11:57;;;;;;;1.47;1.37;;;;;;;-7.02;89.58;100691.56;4950925;28;20031;-72
2021/12/26 08:14:22;;;;;;;1.10;1.10;;;;;;;-6.96;89.63;100698.44;4959007;28;20039;-72
2021/12/26 08:16:48;;;;;;;1.30;1.20;;;;;;;-6.93;89.56;100697.97;4953920;28;20037;-72
2021/12/26 08:19:14;;;;;;;1.70;1.60;;;;;;;-6.91;89.81;100695.13;4953216;29;20059;-72
2021/12/26 08:21:39;;;;;;;1.90;1.27;;;;;;;-6.90;89.51;100694.88;4951900;28;20507;-72
2021/12/26 08:24:05;;;;;;;2.07;1.70;;;;;;;-6.91;89.67;100697.75;4950173;28;20171;-72
2021/12/26 08:26:32;;;;;;;1.30;0.80;;;;;;;-6.89;90.05;100693.84;4953421;28;20039;-72
2021/12/26 08:28:58;;;;;;;3.73;1.67;;;;;;;-6.88;90.15;100699.88;4948958;28;20126;-72
2021/12/26 08:31:23;;;;;;;0.93;0.73;;;;;;;-6.83;90.27;100687.66;4953034;28;20501;-72
2021/12/26 08:33:49;;;;;;;0.83;0.83;;;;;;;-6.83;90.73;100695.50;4952323;28;20644;-72
2021/12/26 08:36:18;;;;;;;1.03;0.80;;;;;;;-6.79;90.93;100699.22;4953031;28;20058;-72
2021/12/26 08:38:44;;;;;;;1.67;1.57;;;;;;;-6.75;91.70;100702.16;4952977;28;20039;-72
2021/12/26 08:41:09;;;;;;;0.80;0.80;;;;;;;-6.75;91.55;100702.94;4953332;28;20519;-72
2021/12/26 08:43:35;;;;;;;1.40;1.10;;;;;;;-6.67;91.85;100701.75;4950947;29;20046;-72
2021/12/26 08:46:00;;;;;;;2.93;2.20;;;;;;;-6.59;91.70;100699.53;4968616;28;20050;-72
2021/12/26 08:48:26;;;;;;;0.97;0.97;;;;;;;-6.50;91.62;100697.25;4953563;29;20130;-72
2021/12/26 08:50:55;;;;;;;4.03;1.53;;;;;;;-6.39;91.42;100696.38;4953986;29;20063;-72
2021/12/26 08:53:28;;;;;;;1.63;1.53;;;;;;;-6.35;91.74;100694.88;4960717;28;20059;-72
2021/12/26 08:55:54;;;;;;;0.90;0.90;;;;;;;-6.19;91.07;100688.78;4949428;28;20102;-72
2021/12/26 08:58:21;;;;;;;0.67;0.67;;;;;;;-5.99;90.55;100696.06;4953087;28;20118;-71
2021/12/26 09:00:46;;;;;;;1.90;1.40;;;;;;;-5.99;91.55;100691.63;4946937;28;20401;-72
2021/12/26 09:03:12;;;;;;;1.27;1.17;;;;;;;-5.84;91.42;100683.94;4951905;28;20074;-72
2021/12/26 09:05:37;;;;;;;0.87;0.73;;;;;;;-5.65;91.92;100692.22;4952400;29;20066;-72
2021/12/26 09:08:04;;;;;;;5.60;1.57;;;;;;;-5.56;92.05;100696.78;4952967;28;20029;-72
2021/12/26 09:10:30;;;;;;;7.10;1.23;;;;;;;-5.45;92.67;100699.50;4947449;28;20039;-72
2021/12/26 09:12:56;;;;;;;0.47;0.47;;;;;;;-5.22;92.34;100702.59;4950630;29;20035;-72
2021/12/26 09:15:22;;;;;;;1.27;1.17;;;;;;;-5.25;92.34;100712.81;4950905;28;20078;-72
2021/12/26 09:17:48;;;;;;;1.33;0.90;;;;;;;-5.23;92.89;100708.91;4952821;29;20481;-72
2021/12/26 09:20:14;;;;;;;0.70;0.70;;;;;;;-5.23;93.63;100721.22;4951280;28;20094;-72
2021/12/26 09:22:42;;;;;;;0.30;0.30;;;;;;;-5.16;93.53;100722.59;4949726;28;20023;-71
2021/12/26 09:25:10;;;;;;;1.00;1.00;;;;;;;-5.07;93.65;100721.09;4949024;28;20408;-71
2021/12/26 09:27:36;;;;;;;0.67;0.67;;;;;;;-5.06;93.57;100717.44;4946498;28;20479;-71
2021/12/26 09:30:07;;;;;;;0.70;0.70;;;;;;;-4.80;93.01;100721.81;4933489;29;20408;-71
2021/12/26 09:32:34;;;;;;;1.80;1.10;;;;;;;-4.70;93.23;100716.63;4944599;28;20540;-71
2021/12/26 09:34:59;;;;;;;4.27;1.30;;;;;;;-4.69;93.19;100733.19;4949930;28;20546;-71
2021/12/26 09:37:25;;;;;;;0.70;0.70;;;;;;;-4.64;92.88;100713.00;4945175;28;20038;-71
2021/12/26 09:39:52;;;;;;;0.80;0.80;;;;;;;-4.60;93.38;100715.91;4948158;29;20074;-71
2021/12/26 09:42:18;;;;;;;0.67;0.67;;;;;;;-4.43;93.44;100715.78;4958915;28;20106;-71
2021/12/26 09:44:44;;;;;;;0.90;0.90;;;;;;;-4.21;92.51;100714.56;4949020;28;20038;-71
2021/12/26 09:47:10;;;;;;;2.07;1.23;;;;;;;-4.17;92.55;100710.38;4948663;28;20035;-70
2021/12/26 09:49:36;;;;;;;0.63;0.60;;;;;;;-3.97;92.19;100715.69;4935861;28;20031;-70
2021/12/26 09:52:03;;;;;;;0.80;0.80;;;;;;;-3.89;91.89;100709.19;4945479;28;20057;-70
2021/12/26 09:54:29;;;;;;;0.67;0.67;;;;;;;-3.83;91.83;100713.38;4943195;28;20027;-70
2021/12/26 09:56:54;;;;;;;0.70;0.70;;;;;;;-3.89;92.07;100717.84;4950805;29;20041;-70
2021/12/26 09:59:23;;;;;;;3.13;1.23;;;;;;;-3.81;91.77;100712.09;4951545;29;20098;-70
2021/12/26 10:01:51;;;;;;;1.40;0.50;;;;;;;-3.77;92.16;100707.91;4945576;29;20441;-70
2021/12/26 10:04:22;;;;;;;0.90;0.90;;;;;;;-3.79;92.82;100712.63;4947524;29;20507;-70
2021/12/26 10:06:51;;;;;;;0.57;0.47;;;;;;;-3.68;92.68;100708.19;4948491;28;20086;-70
2021/12/26 10:09:18;;;;;;;0.97;0.77;;;;;;;-3.60;91.98;100701.63;4950580;28;20158;-70
2021/12/26 10:11:49;;;;;;;0.67;0.67;;;;;;;-3.57;92.19;100709.78;4951489;28;20031;-70
2021/12/26 10:14:17;;;;;;;0.75;0.75;;;;;;;-3.34;90.95;100697.97;4950871;28;20107;-70
2021/12/26 10:16:52;;;;;;;1.27;0.80;;;;;;;-3.26;90.30;100700.09;4952106;29;20045;-70
2021/12/26 10:19:17;;;;;;;1.17;1.07;;;;;;;-3.32;90.28;100695.88;4951457;29;20495;-70
2021/12/26 10:21:58;;;;;;;0.67;0.50;;;;;;;-3.40;91.04;100683.22;4946911;28;20060;-70
2021/12/26 10:24:29;;;;;;;1.45;0.95;;;;;;;-3.27;91.11;100682.75;4932570;29;20040;-70
2021/12/26 10:26:59;;;;;;;0.93;0.68;;;;;;;-3.24;90.86;100682.19;4952416;29;20043;-70
2021/12/26 10:29:32;;;;;;;0.63;0.63;;;;;;;-3.18;90.47;100673.25;4947758;29;20114;-70
2021/12/26 10:32:07;;;;;;;1.70;0.77;;;;;;;-2.91;89.12;100676.41;4945902;28;20119;-70
2021/12/26 10:34:49;;;;;;;2.43;0.73;;;;;;;-2.87;88.56;100669.56;4944359;29;20582;-70
2021/12/26 10:37:35;;;;;;;1.10;0.97;;;;;;;-2.66;86.29;100668.47;4967172;28;20488;-70
2021/12/26 10:40:10;;;;;;;2.97;1.37;;;;;;;-2.66;85.03;100671.09;4959383;28;20263;-70
2021/12/26 10:42:37;;;;;;;0.80;0.80;;;;;;;-2.55;83.39;100669.22;4941024;29;20036;-70
2021/12/26 10:45:14;;;;;;;0.80;0.80;;;;;;;-2.67;84.43;100676.63;4946915;28;20058;-70
2021/12/26 10:47:43;;;;;;;0.43;0.43;;;;;;;-2.58;84.98;100667.13;4956531;29;20086;-70
2021/12/26 10:50:11;;;;;;;0.87;0.87;;;;;;;-2.62;85.37;100672.16;4951441;29;20043;-70
2021/12/26 10:52:48;;;;;;;1.13;0.70;;;;;;;-2.55;85.38;100662.09;4954181;28;20030;-70
2021/12/26 10:55:17;;;;;;;0.40;0.40;;;;;;;-2.49;84.95;100658.41;4939843;29;20039;-70
2021/12/26 10:57:48;;;;;;;1.27;0.77;;;;;;;-2.51;84.98;100660.50;4947215;29;20046;-70
2021/12/26 11:00:30;;;;;;;0.50;0.50;;;;;;;-2.43;85.10;100662.59;4953130;29;20039;-70
2021/12/26 11:03:01;;;;;;;0.50;0.50;;;;;;;-2.49;85.55;100662.88;4954998;28;20051;-70
2021/12/26 11:05:35;;;;;;;0.90;0.80;;;;;;;-2.41;83.78;100649.16;4953261;28;20035;-70
2021/12/26 11:08:03;;;;;;;2.13;0.83;;;;;;;-2.43;83.21;100652.06;4937941;28;20059;-70
2021/12/26 11:10:40;;;;;;;2.10;0.80;;;;;;;-2.39;82.33;100653.09;4946759;29;20023;-70
2021/12/26 11:13:29;;;;;;;1.57;1.00;;;;;;;-2.32;81.18;100656.22;4954565;28;20460;-70
2021/12/26 11:15:57;;;;;;;0.70;0.70;;;;;;;-2.32;81.23;100645.69;4952978;28;20385;-70
2021/12/26 11:18:23;;;;;;;0.50;0.50;;;;;;;-2.32;80.97;100642.28;4954918;29;20090;-70
2021/12/26 11:20:54;;;;;;;1.80;0.60;;;;;;;-2.31;80.81;100642.00;4955124;29;20039;-70
2021/12/26 11:23:22;;;;;;;2.33;1.23;;;;;;;-2.26;80.23;100643.81;4951899;28;20071;-70
2021/12/26 11:25:54;;;;;;;0.40;0.40;;;;;;;-2.25;79.39;100640.13;4951842;28;20053;-70
2021/12/26 11:28:26;;;;;;;0.30;0.30;;;;;;;-2.31;78.84;100628.84;4950621;28;20082;-70
2021/12/26 11:30:58;;;;;;;0.77;0.77;;;;;;;-2.29;78.18;100631.97;4964195;28;20097;-70
2021/12/26 11:33:25;;;;;;;0.60;0.60;;;;;;;-2.17;76.46;100629.81;4953354;28;20035;-72
2021/12/26 11:35:52;;;;;;;0.50;0.50;;;;;;;-2.14;74.50;100623.19;4953289;28;20540;-70
2021/12/26 11:38:22;;;;;;;0.77;0.50;;;;;;;-2.19;73.67;100621.38;4949451;28;20038;-70
2021/12/26 11:41:23;;;;;;;0.70;0.57;;;;;;;-2.11;72.50;100620.81;4958708;28;20042;-70
2021/12/26 11:44:54;;;;;;;0.40;0.40;;;;;;;-2.12;72.47;100627.16;4930805;29;20532;-70